createdAt,value
2023-03-10T00:02:11.185Z,76.87
2023-03-10T00:07:04.007Z,77.00
2023-03-10T00:11:56.989Z,77.02
2023-03-10T00:16:49.815Z,77.20
2023-03-10T00:21:42.626Z,77.21
2023-03-10T00:26:36.014Z,77.39
2023-03-10T00:31:31.378Z,77.29
2023-03-10T00:36:29.667Z,77.41
2023-03-10T00:41:27.984Z,77.54
2023-03-10T00:46:21.674Z,77.65
2023-03-10T00:51:14.568Z,77.80
2023-03-10T00:56:11.428Z,77.64
2023-03-10T01:01:08.182Z,77.95
2023-03-10T01:06:02.419Z,78.03
2023-03-10T01:10:55.709Z,77.99
2023-03-10T01:15:49.023Z,78.33
2023-03-10T01:20:42.789Z,78.65
2023-03-10T01:25:37.670Z,78.60
2023-03-10T01:30:30.555Z,78.74
2023-03-10T01:35:23.331Z,78.87
2023-03-10T01:40:19.947Z,78.98
2023-03-10T01:45:15.534Z,79.23
2023-03-10T01:50:13.937Z,79.13
2023-03-10T01:55:10.392Z,79.29
2023-03-10T02:00:09.264Z,79.45
2023-03-10T02:05:09.378Z,79.29
2023-03-10T02:10:05.759Z,79.33
2023-03-10T02:14:59.522Z,79.51
2023-03-10T02:19:58.578Z,79.75
2023-03-10T02:24:59.098Z,79.92
2023-03-10T02:30:18.978Z,79.93
2023-03-10T02:35:13.306Z,79.96
2023-03-10T02:40:29.910Z,80.04
2023-03-10T02:45:23.841Z,80.02
2023-03-10T02:50:19.264Z,80.06
2023-03-10T02:55:19.668Z,80.02
2023-03-10T03:00:13.984Z,80.29
2023-03-10T03:05:09.175Z,80.12
2023-03-10T03:10:02.153Z,80.28
2023-03-10T03:14:55.597Z,80.43
2023-03-10T03:19:52.124Z,80.49
2023-03-10T03:24:47.436Z,80.48
2023-03-10T03:29:42.758Z,80.59
2023-03-10T03:34:36.486Z,80.66
2023-03-10T03:39:32.005Z,80.82
2023-03-10T03:44:27.007Z,80.72
2023-03-10T03:49:21.294Z,80.95
2023-03-10T03:54:14.778Z,80.84
2023-03-10T03:59:08.414Z,80.89
2023-03-10T04:04:01.899Z,81.07
2023-03-10T04:08:55.108Z,81.05
2023-03-10T04:13:49.181Z,81.12
2023-03-10T04:18:42.913Z,80.97
2023-03-10T04:23:37.512Z,81.32
2023-03-10T04:28:32.612Z,81.19
2023-03-10T04:33:25.761Z,81.41
2023-03-10T04:38:19.309Z,81.51
2023-03-10T04:43:12.758Z,81.44
2023-03-10T04:48:06.031Z,81.69
2023-03-10T04:53:02.147Z,81.76
2023-03-10T04:57:56.211Z,81.87
2023-03-10T05:02:49.375Z,82.06
2023-03-10T05:07:43.054Z,82.10
2023-03-10T05:12:36.209Z,82.27
2023-03-10T05:17:31.495Z,82.41
2023-03-10T05:22:27.909Z,82.29
2023-03-10T05:27:22.121Z,82.60
2023-03-10T05:32:15.590Z,82.49
2023-03-10T05:37:09.914Z,82.61
2023-03-10T05:42:03.243Z,82.41
2023-03-10T05:46:58.436Z,82.68
2023-03-10T05:51:53.466Z,82.78
2023-03-10T05:56:50.557Z,82.92
2023-03-10T06:01:54.492Z,82.78
2023-03-10T06:06:47.293Z,82.83
2023-03-10T06:11:40.174Z,83.03
2023-03-10T06:16:35.156Z,83.22
2023-03-10T06:21:29.649Z,83.18
2023-03-10T06:26:24.785Z,83.07
2023-03-10T06:31:21.340Z,82.72
2023-03-10T06:36:15.713Z,82.63
2023-03-10T06:41:09.011Z,82.68
2023-03-10T06:46:05.930Z,82.52
2023-03-10T06:50:59.184Z,82.30
2023-03-10T06:56:09.401Z,82.14
2023-03-10T07:01:02.298Z,82.12
2023-03-10T07:05:55.905Z,82.04
2023-03-10T07:10:50.609Z,81.79
2023-03-10T07:15:45.878Z,81.34
2023-03-10T07:20:41.909Z,80.85
2023-03-10T07:25:38.343Z,80.59
2023-03-10T07:30:31.318Z,80.22
2023-03-10T07:35:24.161Z,80.45
2023-03-10T07:40:17.543Z,80.34
2023-03-10T07:45:10.961Z,80.51
2023-03-10T07:50:03.978Z,80.51
2023-03-10T07:54:56.909Z,80.51
2023-03-10T07:59:49.806Z,80.68
2023-03-10T08:04:43.234Z,80.85
2023-03-10T08:09:36.940Z,80.44
2023-03-10T08:14:31.612Z,80.52
2023-03-10T08:19:25.774Z,80.77
2023-03-10T08:24:18.647Z,80.76
2023-03-10T08:29:11.463Z,80.98
2023-03-10T08:34:04.263Z,81.06
2023-03-10T08:38:59.222Z,80.88
2023-03-10T08:43:53.887Z,81.27
2023-03-10T08:48:47.404Z,81.78
2023-03-10T08:53:40.699Z,81.91
2023-03-10T08:58:34.337Z,82.01
2023-03-10T09:03:30.308Z,82.11
2023-03-10T09:08:27.018Z,82.17
2023-03-10T09:13:23.350Z,82.42
2023-03-10T09:18:17.190Z,81.95
2023-03-10T09:23:12.099Z,82.13
2023-03-10T09:28:05.555Z,82.50
2023-03-10T09:32:58.504Z,82.53
2023-03-10T09:37:51.504Z,82.49
2023-03-10T09:42:49.228Z,82.61
2023-03-10T09:48:26.311Z,82.55
2023-03-10T09:54:04.551Z,82.69
2023-03-10T09:59:11.294Z,83.01
2023-03-10T10:04:10.196Z,83.06
2023-03-10T10:09:13.981Z,83.16
2023-03-10T10:14:28.523Z,83.37
2023-03-10T10:19:25.324Z,83.56
2023-03-10T10:24:19.798Z,83.29
2023-03-10T10:29:18.300Z,83.50
2023-03-10T10:34:24.044Z,83.49
2023-03-10T10:39:41.525Z,83.88
2023-03-10T10:44:42.414Z,83.54
2023-03-10T10:49:41.209Z,83.45
2023-03-10T10:54:40.414Z,83.32
2023-03-10T10:59:35.989Z,83.59
2023-03-10T11:04:42.783Z,83.70
2023-03-10T11:09:36.698Z,83.73
2023-03-10T11:14:49.555Z,83.73
2023-03-10T11:19:58.275Z,83.52
2023-03-10T11:25:14.358Z,83.52
2023-03-10T11:30:16.393Z,83.54
2023-03-10T11:35:30.324Z,83.52
2023-03-10T11:40:38.538Z,83.32
2023-03-10T11:45:37.106Z,83.46
2023-03-10T11:50:40.574Z,83.34
2023-03-10T11:55:34.148Z,83.22
2023-03-10T12:00:40.847Z,83.21
2023-03-10T12:05:45.372Z,83.11
2023-03-10T12:10:42.045Z,82.76
2023-03-10T12:15:39.959Z,82.70
2023-03-10T12:20:34.559Z,82.79
2023-03-10T12:25:30.414Z,81.96
2023-03-10T12:30:56.558Z,81.61
2023-03-10T12:35:55.340Z,81.11
2023-03-10T12:40:49.756Z,80.35
2023-03-10T12:45:47.501Z,80.32
2023-03-10T12:50:57.034Z,80.31
2023-03-10T12:56:21.262Z,79.82
2023-03-10T13:01:18.561Z,79.27
2023-03-10T13:06:13.582Z,78.83
2023-03-10T13:11:14.857Z,78.71
2023-03-10T13:16:09.614Z,78.58
2023-03-10T13:21:02.954Z,78.19
2023-03-10T13:26:01.430Z,78.51
2023-03-10T13:31:10.534Z,78.69
2023-03-10T13:36:21.090Z,79.15
2023-03-10T13:41:14.070Z,78.87
2023-03-10T13:46:29.125Z,78.80
2023-03-10T13:51:32.109Z,79.18
2023-03-10T13:56:40.260Z,79.19
2023-03-10T14:01:36.134Z,79.42
2023-03-10T14:06:30.103Z,79.71
2023-03-10T14:11:47.112Z,79.86
2023-03-10T14:16:54.528Z,80.12
2023-03-10T14:22:00.316Z,80.07
2023-03-10T14:26:56.393Z,80.12
2023-03-10T14:31:52.810Z,80.20
2023-03-10T14:36:45.683Z,80.62
2023-03-10T14:41:39.174Z,80.69
2023-03-10T14:46:35.340Z,80.87
2023-03-10T14:51:35.535Z,80.60
2023-03-10T14:56:29.492Z,80.93
2023-03-10T15:01:23.311Z,81.24
2023-03-10T15:06:19.202Z,81.14
2023-03-10T15:11:13.838Z,81.51
2023-03-10T15:16:08.287Z,81.54
2023-03-10T15:21:02.627Z,81.41
2023-03-10T15:25:57.015Z,81.52
2023-03-10T15:30:50.191Z,81.75
2023-03-10T15:35:43.230Z,81.85
2023-03-10T15:40:36.860Z,82.27
2023-03-10T15:45:32.111Z,82.42
2023-03-10T15:50:25.346Z,82.59
2023-03-10T15:55:18.901Z,82.83
2023-03-10T16:00:13.779Z,82.92
2023-03-10T16:05:07.664Z,83.01
2023-03-10T16:10:00.690Z,83.10
2023-03-10T16:14:55.381Z,83.27
2023-03-10T16:19:48.523Z,83.51
2023-03-10T16:24:41.360Z,83.48
2023-03-10T16:29:34.920Z,83.88
2023-03-10T16:34:27.876Z,83.65
2023-03-10T16:39:20.681Z,83.85
2023-03-10T16:44:15.641Z,83.91
2023-03-10T16:49:08.788Z,84.11
2023-03-10T16:54:04.105Z,84.17
2023-03-10T16:58:58.004Z,84.16
2023-03-10T17:03:52.196Z,84.04
2023-03-10T17:08:45.557Z,83.88
2023-03-10T17:13:38.856Z,84.05
2023-03-10T17:18:31.996Z,84.11
2023-03-10T17:23:24.816Z,84.54
2023-03-10T17:28:17.605Z,84.60
2023-03-10T17:33:10.637Z,84.78
2023-03-10T17:38:03.831Z,84.70
2023-03-10T17:42:56.699Z,84.58
2023-03-10T17:47:50.665Z,84.84
2023-03-10T17:52:43.554Z,84.72
2023-03-10T17:57:36.341Z,84.82
2023-03-10T18:02:29.187Z,84.67
2023-03-10T18:07:22.183Z,84.76
2023-03-10T18:12:14.974Z,84.70
2023-03-10T18:17:07.781Z,84.65
2023-03-10T18:22:01.027Z,84.66
2023-03-10T18:26:53.833Z,84.69
2023-03-10T18:31:46.610Z,84.69
2023-03-10T18:36:39.429Z,84.71
2023-03-10T18:41:32.904Z,84.87
2023-03-10T18:46:25.886Z,84.82
2023-03-10T18:51:18.683Z,84.78
2023-03-10T18:56:11.524Z,84.67
2023-03-10T19:01:04.426Z,84.65
2023-03-10T19:05:57.661Z,84.71
2023-03-10T19:10:58.438Z,84.86
2023-03-10T19:15:51.659Z,84.85
2023-03-10T19:20:46.242Z,84.41
2023-03-10T19:25:39.242Z,84.62
2023-03-10T19:30:32.819Z,84.81
2023-03-10T19:35:25.736Z,84.87
2023-03-10T19:40:20.805Z,84.86
2023-03-10T19:45:19.167Z,84.91
2023-03-10T19:50:18.187Z,84.86
2023-03-10T19:55:16.424Z,84.79
2023-03-10T20:00:13.882Z,84.81
2023-03-10T20:05:07.275Z,84.78
2023-03-10T20:10:00.857Z,84.52
2023-03-10T20:14:58.744Z,84.77
2023-03-10T20:20:20.185Z,84.90
2023-03-10T20:25:19.882Z,84.65
2023-03-10T20:30:19.606Z,84.80
2023-03-10T20:35:14.698Z,84.73
2023-03-10T20:40:08.591Z,84.64
2023-03-10T20:45:02.653Z,84.49
2023-03-10T20:49:56.460Z,84.62
2023-03-10T20:54:49.373Z,84.69
2023-03-10T20:59:42.216Z,84.61
2023-03-10T21:04:35.073Z,84.60
2023-03-10T21:09:28.023Z,84.25
2023-03-10T21:14:20.804Z,84.16
2023-03-10T21:19:13.949Z,84.55
2023-03-10T21:24:07.067Z,84.60
2023-03-10T21:29:00.597Z,84.53
2023-03-10T21:33:53.514Z,84.33
2023-03-10T21:38:48.828Z,84.53
2023-03-10T21:43:42.517Z,84.62
2023-03-10T21:48:35.858Z,84.85
2023-03-10T21:53:29.909Z,84.86
2023-03-10T21:58:25.175Z,84.81
2023-03-10T22:03:18.409Z,84.83
2023-03-10T22:08:11.361Z,85.05
2023-03-10T22:13:04.510Z,85.14
2023-03-10T22:17:57.352Z,85.20
2023-03-10T22:22:50.526Z,85.15
2023-03-10T22:27:45.054Z,85.36
2023-03-10T22:32:38.197Z,85.31
2023-03-10T22:37:31.127Z,85.44
2023-03-10T22:42:23.913Z,85.57
2023-03-10T22:47:18.452Z,85.51
2023-03-10T22:52:11.731Z,85.51
2023-03-10T22:57:04.864Z,87.05
2023-03-10T23:01:57.779Z,86.38
2023-03-10T23:06:51.581Z,87.39
2023-03-10T23:11:45.516Z,88.10
2023-03-10T23:16:38.541Z,88.25
2023-03-10T23:21:31.525Z,88.13
2023-03-10T23:26:24.316Z,88.29
2023-03-10T23:31:17.343Z,88.57
2023-03-10T23:36:11.834Z,88.46
2023-03-10T23:41:05.313Z,88.63
2023-03-10T23:45:58.508Z,88.92
2023-03-10T23:50:52.128Z,88.58
2023-03-10T23:55:47.809Z,88.36
